createdAt,value
2019-05-10T00:00:03.419Z,0.00
2019-05-10T00:01:03.420Z,0.00
2019-05-10T00:02:03.432Z,0.00
2019-05-10T00:03:03.431Z,0.00
2019-05-10T00:04:03.405Z,0.00
2019-05-10T00:05:03.416Z,0.00
2019-05-10T00:06:03.407Z,0.00
2019-05-10T00:07:03.399Z,0.00
2019-05-10T00:08:03.388Z,0.00
2019-05-10T00:09:03.384Z,0.00
2019-05-10T00:10:03.377Z,0.00
2019-05-10T00:11:03.373Z,0.00
2019-05-10T00:12:03.382Z,0.00
2019-05-10T00:13:03.364Z,0.00
2019-05-10T00:14:03.367Z,0.00
2019-05-10T00:15:03.363Z,0.00
2019-05-10T00:16:03.351Z,0.00
2019-05-10T00:17:03.463Z,0.00
2019-05-10T00:18:03.346Z,0.00
2019-05-10T00:19:03.340Z,0.00
2019-05-10T00:20:03.337Z,0.00
2019-05-10T00:21:03.332Z,0.00
2019-05-10T00:22:03.329Z,0.00
2019-05-10T00:23:03.323Z,0.00
2019-05-10T00:24:03.320Z,0.00
2019-05-10T00:25:04.962Z,0.00
2019-05-10T00:26:03.309Z,0.00
2019-05-10T00:27:03.306Z,0.00
2019-05-10T00:28:03.300Z,0.00
2019-05-10T00:29:03.298Z,0.00
2019-05-10T00:30:03.291Z,0.00
2019-05-10T00:31:03.291Z,0.00
2019-05-10T00:32:03.289Z,0.00
2019-05-10T00:33:03.305Z,0.00
2019-05-10T00:34:03.273Z,0.00
2019-05-10T00:35:03.269Z,0.00
2019-05-10T00:36:03.266Z,0.00
2019-05-10T00:37:03.261Z,0.00
2019-05-10T00:38:03.255Z,0.00
2019-05-10T00:39:03.257Z,0.00
2019-05-10T00:40:03.250Z,0.00
2019-05-10T00:41:03.285Z,0.00
2019-05-10T00:42:03.239Z,0.00
2019-05-10T00:43:03.234Z,0.00
2019-05-10T00:44:03.239Z,0.00
2019-05-10T00:45:03.228Z,0.00
2019-05-10T00:46:03.221Z,0.00
2019-05-10T00:47:03.215Z,0.00
2019-05-10T00:48:03.214Z,0.00
2019-05-10T00:49:03.207Z,0.00
2019-05-10T00:50:03.204Z,0.00
2019-05-10T00:51:03.211Z,0.00
2019-05-10T00:52:03.196Z,0.00
2019-05-10T00:53:03.192Z,0.00
2019-05-10T00:54:03.184Z,0.00
2019-05-10T00:55:17.916Z,0.00
2019-05-10T00:56:03.174Z,0.00
2019-05-10T00:57:03.169Z,0.00
2019-05-10T00:58:03.162Z,0.00
2019-05-10T00:59:03.159Z,0.00
2019-05-10T01:00:03.158Z,0.00
2019-05-10T01:01:03.218Z,0.00
2019-05-10T01:02:03.147Z,0.00
2019-05-10T01:03:03.143Z,0.00
2019-05-10T01:04:03.141Z,0.00
2019-05-10T01:05:03.136Z,0.00
2019-05-10T01:06:03.161Z,0.00
2019-05-10T01:07:03.129Z,0.00
2019-05-10T01:08:03.127Z,0.00
2019-05-10T01:09:03.125Z,0.00
2019-05-10T01:10:03.113Z,0.00
2019-05-10T01:11:03.110Z,0.00
2019-05-10T01:12:03.102Z,0.00
2019-05-10T01:13:03.116Z,0.00
2019-05-10T01:14:03.092Z,0.00
2019-05-10T01:15:03.084Z,0.00
2019-05-10T01:16:03.079Z,0.00
2019-05-10T01:17:03.081Z,0.00
2019-05-10T01:18:03.080Z,0.00
2019-05-10T01:19:03.068Z,0.00
2019-05-10T01:20:03.065Z,0.00
2019-05-10T01:21:03.059Z,0.00
2019-05-10T01:22:03.056Z,0.00
2019-05-10T01:23:03.052Z,0.00
2019-05-10T01:24:03.317Z,0.00
2019-05-10T01:25:03.038Z,0.00
2019-05-10T01:26:03.036Z,0.00
2019-05-10T01:27:03.033Z,0.00
2019-05-10T01:28:03.031Z,0.00
2019-05-10T01:29:03.025Z,0.00
2019-05-10T01:30:03.016Z,0.00
2019-05-10T01:31:03.018Z,0.00
2019-05-10T01:32:03.006Z,0.00
2019-05-10T01:33:03.004Z,0.00
2019-05-10T01:34:02.996Z,0.00
2019-05-10T01:35:02.995Z,0.00
2019-05-10T01:36:02.991Z,0.00
2019-05-10T01:37:02.981Z,0.00
2019-05-10T01:38:02.980Z,0.00
2019-05-10T01:39:02.974Z,0.00
2019-05-10T01:40:02.969Z,0.00
2019-05-10T01:41:02.971Z,0.00
2019-05-10T01:42:02.960Z,0.00
2019-05-10T01:43:02.955Z,0.00
2019-05-10T01:44:02.960Z,0.00
2019-05-10T01:45:02.944Z,0.00
2019-05-10T01:46:02.963Z,0.00
2019-05-10T01:47:03.037Z,0.00
2019-05-10T01:48:02.930Z,0.00
2019-05-10T01:49:02.941Z,0.00
2019-05-10T01:50:02.919Z,0.00
2019-05-10T01:51:02.972Z,0.00
2019-05-10T01:52:02.910Z,0.00
2019-05-10T01:53:02.909Z,0.00
2019-05-10T01:54:02.930Z,0.00
2019-05-10T01:55:03.786Z,0.00
2019-05-10T01:56:02.890Z,0.00
2019-05-10T01:57:02.886Z,0.00
2019-05-10T01:58:02.878Z,0.00
2019-05-10T01:59:02.873Z,0.00
2019-05-10T02:00:02.869Z,0.00
2019-05-10T02:01:03.169Z,0.00
2019-05-10T02:02:02.862Z,0.00
2019-05-10T02:03:02.857Z,0.00
2019-05-10T02:04:02.850Z,0.00
2019-05-10T02:05:02.849Z,0.00
2019-05-10T02:06:02.839Z,0.00
2019-05-10T02:07:02.833Z,0.00
2019-05-10T02:08:02.828Z,0.00
2019-05-10T02:09:02.821Z,0.00
2019-05-10T02:10:02.822Z,0.00
2019-05-10T02:11:02.819Z,0.00
2019-05-10T02:12:02.832Z,0.00
2019-05-10T02:13:02.803Z,0.00
2019-05-10T02:14:02.796Z,0.00
2019-05-10T02:15:02.800Z,0.00
2019-05-10T02:16:02.785Z,0.00
2019-05-10T02:17:02.788Z,0.00
2019-05-10T02:18:02.776Z,0.00
2019-05-10T02:19:02.770Z,0.00
2019-05-10T02:20:02.767Z,0.00
2019-05-10T02:21:02.765Z,0.00
2019-05-10T02:22:02.777Z,0.00
2019-05-10T02:23:02.937Z,0.00
2019-05-10T02:24:02.910Z,0.00
2019-05-10T02:25:03.029Z,0.00
2019-05-10T02:26:09.595Z,0.00
2019-05-10T02:27:02.732Z,0.00
2019-05-10T02:28:02.721Z,0.00
2019-05-10T02:29:02.900Z,0.00
2019-05-10T02:30:02.854Z,0.00
2019-05-10T02:31:02.750Z,0.00
2019-05-10T02:32:02.830Z,0.00
2019-05-10T02:33:02.785Z,0.00
2019-05-10T02:34:02.693Z,0.00
2019-05-10T02:35:02.686Z,0.00
2019-05-10T02:36:02.683Z,0.00
2019-05-10T02:37:02.675Z,0.00
2019-05-10T02:38:02.676Z,0.00
2019-05-10T02:39:02.840Z,0.00
2019-05-10T02:40:02.679Z,0.00
2019-05-10T02:41:02.653Z,0.00
2019-05-10T02:42:02.650Z,0.00
2019-05-10T02:43:02.672Z,0.00
2019-05-10T02:44:02.639Z,0.00
2019-05-10T02:45:02.637Z,0.00
2019-05-10T02:46:02.630Z,0.00
2019-05-10T02:47:02.624Z,0.00
2019-05-10T02:48:02.619Z,0.00
2019-05-10T02:49:02.612Z,0.00
2019-05-10T02:50:02.613Z,0.00
2019-05-10T02:51:02.604Z,0.00
2019-05-10T02:52:02.607Z,0.00
2019-05-10T02:53:02.593Z,0.00
2019-05-10T02:54:02.588Z,0.00
2019-05-10T02:55:02.590Z,0.00
2019-05-10T02:56:02.656Z,0.00
2019-05-10T02:57:02.646Z,0.00
2019-05-10T02:58:02.564Z,0.00
2019-05-10T02:59:02.559Z,0.00
2019-05-10T03:00:02.558Z,0.00
2019-05-10T03:01:02.548Z,0.00
2019-05-10T03:02:02.545Z,0.00
2019-05-10T03:03:02.567Z,0.00
2019-05-10T03:04:02.537Z,0.00
2019-05-10T03:05:02.524Z,0.00
2019-05-10T03:06:02.552Z,0.00
2019-05-10T03:07:02.515Z,0.00
2019-05-10T03:08:02.509Z,0.00
2019-05-10T03:09:02.506Z,0.00
2019-05-10T03:10:02.497Z,0.00
2019-05-10T03:11:02.493Z,0.00
2019-05-10T03:12:03.155Z,0.00
2019-05-10T03:13:02.500Z,0.00
2019-05-10T03:14:02.471Z,0.00
2019-05-10T03:15:02.473Z,0.00
2019-05-10T03:16:02.469Z,0.00
2019-05-10T03:17:02.480Z,0.00
2019-05-10T03:18:38.244Z,0.00
2019-05-10T03:19:02.452Z,0.00
2019-05-10T03:20:02.448Z,0.00
2019-05-10T03:21:02.443Z,0.00
2019-05-10T03:22:02.449Z,0.00
2019-05-10T03:23:02.434Z,0.00
2019-05-10T03:24:02.428Z,0.00
2019-05-10T03:25:02.424Z,0.00
2019-05-10T03:26:02.419Z,0.00
2019-05-10T03:27:03.138Z,0.00
2019-05-10T03:28:02.407Z,0.00
2019-05-10T03:29:02.405Z,0.00
2019-05-10T03:30:02.396Z,0.00
2019-05-10T03:31:02.391Z,0.00
2019-05-10T03:32:02.388Z,0.00
2019-05-10T03:33:02.381Z,0.00
2019-05-10T03:34:02.454Z,0.00
2019-05-10T03:35:02.384Z,0.00
2019-05-10T03:36:02.364Z,0.00
2019-05-10T03:37:02.357Z,0.00
2019-05-10T03:38:02.353Z,0.00
2019-05-10T03:39:02.373Z,0.00
2019-05-10T03:40:02.343Z,0.00
2019-05-10T03:41:02.346Z,0.00
2019-05-10T03:42:02.352Z,0.00
2019-05-10T03:43:02.334Z,0.00
2019-05-10T03:44:02.351Z,0.00
2019-05-10T03:45:02.317Z,0.00
2019-05-10T03:46:02.313Z,0.00
2019-05-10T03:47:02.309Z,0.00
2019-05-10T03:48:02.303Z,0.00
2019-05-10T03:49:02.404Z,0.00
2019-05-10T03:50:02.293Z,0.00
2019-05-10T03:51:02.301Z,0.00
2019-05-10T03:52:02.284Z,0.00
2019-05-10T03:53:02.276Z,0.00
2019-05-10T03:54:02.271Z,0.00
2019-05-10T03:55:02.265Z,0.00
2019-05-10T03:56:02.268Z,0.00
2019-05-10T03:57:12.864Z,5.63
2019-05-10T03:58:02.250Z,5.63
2019-05-10T03:59:02.267Z,5.63
2019-05-10T04:00:02.248Z,5.63
2019-05-10T04:01:02.241Z,5.63
2019-05-10T04:02:02.232Z,5.63
2019-05-10T04:03:02.226Z,5.63
2019-05-10T04:04:02.228Z,5.63
2019-05-10T04:05:02.217Z,5.63
2019-05-10T04:06:02.216Z,5.63
2019-05-10T04:07:02.213Z,5.63
2019-05-10T04:08:02.202Z,5.63
2019-05-10T04:09:02.193Z,5.63
2019-05-10T04:10:02.200Z,5.63
2019-05-10T04:11:02.183Z,5.63
2019-05-10T04:12:02.179Z,5.63
2019-05-10T04:13:02.174Z,5.63
2019-05-10T04:14:02.185Z,5.63
2019-05-10T04:15:02.165Z,5.63
2019-05-10T04:16:02.258Z,5.63
2019-05-10T04:17:02.156Z,5.63
2019-05-10T04:18:02.149Z,5.63
2019-05-10T04:19:02.144Z,5.63
2019-05-10T04:20:02.142Z,5.63
2019-05-10T04:21:02.137Z,5.63
2019-05-10T04:22:02.152Z,5.63
2019-05-10T04:23:02.124Z,5.63
2019-05-10T04:24:02.121Z,5.63
2019-05-10T04:25:02.120Z,11.25
2019-05-10T04:26:02.130Z,11.25
2019-05-10T04:27:02.105Z,11.25
2019-05-10T04:28:02.101Z,11.25
2019-05-10T04:29:02.101Z,16.88
2019-05-10T04:30:02.091Z,16.88
2019-05-10T04:31:02.088Z,16.88
2019-05-10T04:32:02.089Z,16.88
2019-05-10T04:33:02.084Z,22.50
2019-05-10T04:34:02.071Z,22.50
2019-05-10T04:35:02.067Z,28.13
2019-05-10T04:36:02.067Z,28.13
2019-05-10T04:37:02.062Z,28.13
2019-05-10T04:38:02.055Z,28.13
2019-05-10T04:39:02.053Z,28.13
2019-05-10T04:40:02.090Z,33.75
2019-05-10T04:41:02.037Z,28.13
2019-05-10T04:42:02.035Z,33.75
2019-05-10T04:43:02.042Z,33.75
2019-05-10T04:44:02.037Z,33.75
2019-05-10T04:45:02.028Z,33.75
2019-05-10T04:46:02.025Z,33.75
2019-05-10T04:47:02.014Z,39.38
2019-05-10T04:48:02.007Z,33.75
2019-05-10T04:49:02.008Z,33.75
2019-05-10T04:50:02.006Z,33.75
2019-05-10T04:51:02.025Z,33.75
2019-05-10T04:52:01.996Z,33.75
2019-05-10T04:53:01.987Z,33.75
2019-05-10T04:54:02.052Z,33.75
2019-05-10T04:55:01.980Z,39.38
2019-05-10T04:56:01.971Z,39.38
2019-05-10T04:57:01.968Z,45.00
2019-05-10T04:58:01.962Z,45.00
2019-05-10T04:59:02.461Z,50.63
2019-05-10T05:00:02.000Z,56.25
2019-05-10T05:01:01.954Z,56.25
2019-05-10T05:02:01.949Z,61.88
2019-05-10T05:03:01.942Z,90.00
2019-05-10T05:04:02.017Z,56.25
2019-05-10T05:05:01.957Z,56.25
2019-05-10T05:06:01.931Z,56.25
2019-05-10T05:07:01.925Z,50.63
2019-05-10T05:08:01.917Z,56.25
2019-05-10T05:09:01.920Z,56.25
2019-05-10T05:10:01.920Z,50.63
2019-05-10T05:11:01.904Z,50.63
2019-05-10T05:12:01.919Z,50.63
2019-05-10T05:13:01.896Z,50.63
2019-05-10T05:14:01.894Z,50.63
2019-05-10T05:15:01.901Z,45.00
2019-05-10T05:16:01.892Z,45.00
2019-05-10T05:17:01.880Z,39.38
2019-05-10T05:18:01.877Z,39.38
2019-05-10T05:19:01.874Z,39.38
2019-05-10T05:20:01.876Z,39.38
2019-05-10T05:21:01.868Z,45.00
2019-05-10T05:22:01.869Z,45.00
2019-05-10T05:23:01.871Z,45.00
2019-05-10T05:24:01.851Z,50.63
2019-05-10T05:25:03.788Z,50.63
2019-05-10T05:26:01.845Z,50.63
2019-05-10T05:27:01.840Z,50.63
2019-05-10T05:28:07.818Z,50.63
2019-05-10T05:29:01.834Z,50.63
2019-05-10T05:30:01.907Z,56.25
2019-05-10T05:31:01.823Z,50.63
2019-05-10T05:32:03.610Z,50.63
2019-05-10T05:33:01.818Z,50.63
2019-05-10T05:34:04.921Z,50.63
2019-05-10T05:35:01.813Z,56.25
2019-05-10T05:36:02.483Z,56.25
2019-05-10T05:37:01.798Z,61.88
2019-05-10T05:38:01.797Z,61.88
2019-05-10T05:39:01.814Z,73.13
2019-05-10T05:40:01.801Z,73.13
2019-05-10T05:41:01.804Z,73.13
2019-05-10T05:42:01.780Z,73.13
2019-05-10T05:43:02.706Z,78.75
2019-05-10T05:44:01.772Z,78.75
2019-05-10T05:45:01.777Z,78.75
2019-05-10T05:46:01.760Z,78.75
2019-05-10T05:47:04.548Z,78.75
2019-05-10T05:48:02.676Z,84.38
2019-05-10T05:49:01.753Z,101.25
2019-05-10T05:50:01.749Z,225.00
2019-05-10T05:51:01.743Z,202.50
2019-05-10T05:52:01.735Z,230.63
2019-05-10T05:53:01.740Z,264.38
2019-05-10T05:54:04.099Z,225.00
2019-05-10T05:55:01.762Z,230.63
2019-05-10T05:56:03.622Z,174.38
2019-05-10T05:57:01.716Z,180.00
2019-05-10T05:58:05.042Z,219.38
2019-05-10T05:59:01.710Z,185.63
2019-05-10T06:00:04.333Z,202.50
2019-05-10T06:01:01.703Z,230.63
2019-05-10T06:02:07.533Z,225.00
2019-05-10T06:03:01.698Z,219.38
2019-05-10T06:04:06.226Z,213.75
2019-05-10T06:05:01.697Z,213.75
2019-05-10T06:06:01.702Z,213.75
2019-05-10T06:07:01.685Z,213.75
2019-05-10T06:08:01.764Z,213.75
2019-05-10T06:09:01.768Z,213.75
2019-05-10T06:10:01.735Z,213.75
2019-05-10T06:11:01.673Z,213.75
2019-05-10T06:12:01.670Z,208.13
2019-05-10T06:13:01.669Z,208.13
2019-05-10T06:14:03.804Z,213.75
2019-05-10T06:15:01.659Z,219.38
2019-05-10T06:16:06.454Z,225.00
2019-05-10T06:17:01.653Z,236.25
2019-05-10T06:18:03.588Z,241.88
2019-05-10T06:19:01.654Z,241.88
2019-05-10T06:20:05.986Z,236.25
2019-05-10T06:21:01.640Z,236.25
2019-05-10T06:22:04.513Z,202.50
2019-05-10T06:23:06.856Z,135.00
2019-05-10T06:24:01.631Z,123.75
2019-05-10T06:25:01.630Z,219.38
2019-05-10T06:26:01.630Z,168.75
2019-05-10T06:27:03.481Z,219.38
2019-05-10T06:28:01.624Z,219.38
2019-05-10T06:29:04.468Z,213.75
2019-05-10T06:30:01.616Z,213.75
2019-05-10T06:31:01.797Z,213.75
2019-05-10T06:32:01.613Z,213.75
2019-05-10T06:33:12.061Z,208.13
2019-05-10T06:34:01.609Z,208.13
2019-05-10T06:35:01.613Z,106.88
2019-05-10T06:36:01.601Z,101.25
2019-05-10T06:37:01.600Z,146.25
2019-05-10T06:38:01.599Z,185.63
2019-05-10T06:39:01.609Z,129.38
2019-05-10T06:40:01.710Z,140.63
2019-05-10T06:41:01.587Z,185.63
2019-05-10T06:42:01.591Z,163.13
2019-05-10T06:43:01.688Z,157.50
2019-05-10T06:44:01.579Z,146.25
2019-05-10T06:45:05.080Z,123.75
2019-05-10T06:46:01.572Z,129.38
2019-05-10T06:47:02.061Z,118.13
2019-05-10T06:48:01.568Z,118.13
2019-05-10T06:49:08.121Z,106.88
2019-05-10T06:50:01.562Z,106.88
2019-05-10T06:51:02.860Z,106.88
2019-05-10T06:52:01.558Z,112.50
2019-05-10T06:53:07.574Z,118.13
2019-05-10T06:54:01.560Z,112.50
2019-05-10T06:55:01.549Z,112.50
2019-05-10T06:56:01.544Z,106.88
2019-05-10T06:57:02.037Z,101.25
2019-05-10T06:58:01.539Z,95.63
2019-05-10T06:59:12.770Z,90.00
2019-05-10T07:00:06.006Z,78.75
2019-05-10T07:01:01.550Z,73.13
2019-05-10T07:02:02.239Z,61.88
2019-05-10T07:03:01.555Z,61.88
2019-05-10T07:04:01.539Z,61.88
2019-05-10T07:05:01.522Z,56.25
2019-05-10T07:06:01.514Z,56.25
2019-05-10T07:07:01.511Z,61.88
2019-05-10T07:08:14.022Z,67.50
2019-05-10T07:09:01.507Z,73.13
2019-05-10T07:10:12.595Z,84.38
2019-05-10T07:11:01.512Z,90.00
2019-05-10T07:12:01.510Z,84.38
2019-05-10T07:13:03.610Z,84.38
2019-05-10T07:14:01.512Z,90.00
2019-05-10T07:15:03.362Z,90.00
2019-05-10T07:16:01.485Z,90.00
2019-05-10T07:17:02.745Z,95.63
2019-05-10T07:18:01.479Z,106.88
2019-05-10T07:19:02.239Z,95.63
2019-05-10T07:20:01.476Z,90.00
2019-05-10T07:21:06.653Z,84.38
2019-05-10T07:22:01.468Z,78.75
2019-05-10T07:23:06.016Z,73.13
2019-05-10T07:24:01.501Z,73.13
2019-05-10T07:25:04.173Z,73.13
2019-05-10T07:26:01.479Z,73.13
2019-05-10T07:27:02.825Z,73.13
2019-05-10T07:28:01.484Z,78.75
2019-05-10T07:29:01.447Z,84.38
2019-05-10T07:30:01.447Z,84.38
2019-05-10T07:31:01.454Z,90.00
2019-05-10T07:32:01.451Z,101.25
2019-05-10T07:33:01.978Z,112.50
2019-05-10T07:34:01.441Z,123.75
2019-05-10T07:35:01.432Z,129.38
2019-05-10T07:36:01.433Z,129.38
2019-05-10T07:37:02.009Z,129.38
2019-05-10T07:38:01.422Z,140.63
2019-05-10T07:39:02.881Z,140.63
2019-05-10T07:40:03.493Z,151.88
2019-05-10T07:41:01.460Z,146.25
2019-05-10T07:42:06.637Z,146.25
2019-05-10T07:43:01.410Z,135.00
2019-05-10T07:44:08.084Z,112.50
2019-05-10T07:45:01.413Z,95.63
2019-05-10T07:46:06.072Z,90.00
2019-05-10T07:47:01.410Z,84.38
2019-05-10T07:48:02.552Z,78.75
2019-05-10T07:49:01.392Z,78.75
2019-05-10T07:50:03.901Z,73.13
2019-05-10T07:51:01.386Z,73.13
2019-05-10T07:52:03.079Z,67.50
2019-05-10T07:53:01.385Z,67.50
2019-05-10T07:54:04.537Z,73.13
2019-05-10T07:55:01.391Z,73.13
2019-05-10T07:56:06.030Z,78.75
2019-05-10T07:57:01.370Z,84.38
2019-05-10T07:58:04.976Z,101.25
2019-05-10T07:59:01.370Z,123.75
2019-05-10T08:00:03.470Z,146.25
2019-05-10T08:01:01.360Z,174.38
2019-05-10T08:02:05.947Z,185.63
2019-05-10T08:03:09.826Z,180.00
2019-05-10T08:04:01.350Z,174.38
2019-05-10T08:05:05.024Z,191.25
2019-05-10T08:06:02.217Z,168.75
2019-05-10T08:07:01.343Z,163.13
2019-05-10T08:08:01.347Z,157.50
2019-05-10T08:09:06.271Z,151.88
2019-05-10T08:10:04.624Z,140.63
2019-05-10T08:11:01.330Z,140.63
2019-05-10T08:12:05.135Z,129.38
2019-05-10T08:13:03.592Z,123.75
2019-05-10T08:14:06.145Z,118.13
2019-05-10T08:15:01.333Z,123.75
2019-05-10T08:16:05.486Z,123.75
2019-05-10T08:17:05.909Z,112.50
2019-05-10T08:18:01.313Z,112.50
2019-05-10T08:19:02.376Z,123.75
2019-05-10T08:20:01.310Z,123.75
2019-05-10T08:21:05.132Z,135.00
2019-05-10T08:22:04.040Z,140.63
2019-05-10T08:23:02.811Z,140.63
2019-05-10T08:24:07.170Z,140.63
2019-05-10T08:25:02.267Z,146.25
2019-05-10T08:26:04.455Z,151.88
2019-05-10T08:27:07.923Z,163.13
2019-05-10T08:28:05.035Z,163.13
2019-05-10T08:29:02.126Z,163.13
2019-05-10T08:30:20.377Z,157.50
2019-05-10T08:31:02.476Z,157.50
2019-05-10T08:32:03.012Z,157.50
2019-05-10T08:33:09.358Z,157.50
2019-05-10T08:34:02.191Z,168.75
2019-05-10T08:35:05.014Z,180.00
2019-05-10T08:36:05.214Z,202.50
2019-05-10T08:37:02.589Z,213.75
2019-05-10T08:38:02.324Z,219.38
2019-05-10T08:39:10.046Z,202.50
2019-05-10T08:40:03.160Z,196.88
2019-05-10T08:41:02.667Z,180.00
2019-05-10T08:42:08.969Z,168.75
2019-05-10T08:43:06.654Z,151.88
2019-05-10T08:44:04.627Z,151.88
2019-05-10T08:45:05.367Z,163.13
2019-05-10T08:46:02.632Z,174.38
2019-05-10T08:47:02.277Z,185.63
2019-05-10T08:48:06.859Z,191.25
2019-05-10T08:49:02.107Z,202.50
2019-05-10T08:50:18.701Z,213.75
2019-05-10T08:51:04.000Z,213.75
2019-05-10T08:52:02.868Z,208.13
2019-05-10T08:53:04.351Z,213.75
2019-05-10T08:54:01.745Z,219.38
2019-05-10T08:55:02.747Z,208.13
2019-05-10T08:56:02.218Z,185.63
2019-05-10T08:57:05.175Z,168.75
2019-05-10T08:58:02.939Z,157.50
2019-05-10T08:59:03.779Z,146.25
2019-05-10T09:00:07.146Z,151.88
2019-05-10T09:01:16.270Z,146.25
2019-05-10T09:02:02.187Z,146.25
2019-05-10T09:03:09.529Z,157.50
2019-05-10T09:04:06.651Z,168.75
2019-05-10T09:05:02.711Z,180.00
2019-05-10T09:06:05.317Z,191.25
2019-05-10T09:07:02.798Z,191.25
2019-05-10T09:08:05.409Z,196.88
2019-05-10T09:09:03.183Z,320.63
2019-05-10T09:10:02.265Z,236.25
2019-05-10T09:11:06.434Z,230.63
2019-05-10T09:12:04.161Z,376.88
2019-05-10T09:13:03.242Z,427.50
2019-05-10T09:14:03.150Z,225.00
2019-05-10T09:15:08.383Z,202.50
2019-05-10T09:16:02.458Z,196.88
2019-05-10T09:17:04.377Z,202.50
2019-05-10T09:18:04.390Z,196.88
2019-05-10T09:19:02.544Z,196.88
2019-05-10T09:20:02.707Z,185.63
2019-05-10T09:21:09.090Z,225.00
2019-05-10T09:22:01.935Z,163.13
2019-05-10T09:23:02.403Z,163.13
2019-05-10T09:24:05.889Z,174.38
2019-05-10T09:25:01.799Z,185.63
2019-05-10T09:26:09.829Z,191.25
2019-05-10T09:27:01.875Z,191.25
2019-05-10T09:28:10.683Z,191.25
2019-05-10T09:29:01.716Z,185.63
2019-05-10T09:30:02.923Z,191.25
2019-05-10T09:31:17.057Z,174.38
2019-05-10T09:32:06.292Z,146.25
2019-05-10T09:33:08.460Z,118.13
2019-05-10T09:34:02.408Z,95.63
2019-05-10T09:35:07.522Z,90.00
2019-05-10T09:36:02.914Z,84.38
2019-05-10T09:37:02.964Z,84.38
2019-05-10T09:38:01.980Z,84.38
2019-05-10T09:39:03.404Z,90.00
2019-05-10T09:40:09.352Z,101.25
2019-05-10T09:41:02.427Z,112.50
2019-05-10T09:42:08.240Z,118.13
2019-05-10T09:43:05.157Z,129.38
2019-05-10T09:44:03.053Z,146.25
2019-05-10T09:45:03.094Z,163.13
2019-05-10T09:46:02.691Z,168.75
2019-05-10T09:47:03.681Z,180.00
2019-05-10T09:48:02.517Z,180.00
2019-05-10T09:49:13.718Z,174.38
2019-05-10T09:50:02.273Z,168.75
2019-05-10T09:51:04.194Z,168.75
2019-05-10T09:52:04.600Z,174.38
2019-05-10T09:53:01.514Z,185.63
2019-05-10T09:54:01.204Z,191.25
2019-05-10T09:55:03.923Z,196.88
2019-05-10T09:56:03.162Z,202.50
2019-05-10T09:57:01.219Z,202.50
2019-05-10T09:58:01.226Z,196.88
2019-05-10T09:59:01.199Z,180.00
2019-05-10T10:00:01.196Z,174.38
2019-05-10T10:01:13.358Z,208.13
2019-05-10T10:02:04.954Z,253.13
2019-05-10T10:03:01.861Z,236.25
2019-05-10T10:04:02.340Z,236.25
2019-05-10T10:05:01.195Z,213.75
2019-05-10T10:06:07.449Z,196.88
2019-05-10T10:07:01.193Z,180.00
2019-05-10T10:08:03.772Z,180.00
2019-05-10T10:09:01.211Z,163.13
2019-05-10T10:10:01.190Z,129.38
2019-05-10T10:11:10.477Z,106.88
2019-05-10T10:12:03.204Z,84.38
2019-05-10T10:13:11.481Z,73.13
2019-05-10T10:14:02.213Z,67.50
2019-05-10T10:15:01.182Z,67.50
2019-05-10T10:16:03.983Z,67.50
2019-05-10T10:17:03.108Z,73.13
2019-05-10T10:18:01.204Z,67.50
2019-05-10T10:19:01.179Z,78.75
2019-05-10T10:20:01.177Z,84.38
2019-05-10T10:21:01.175Z,90.00
2019-05-10T10:22:05.487Z,95.63
2019-05-10T10:23:01.175Z,101.25
2019-05-10T10:24:12.764Z,106.88
2019-05-10T10:25:01.175Z,112.50
2019-05-10T10:26:01.176Z,118.13
2019-05-10T10:27:01.174Z,129.38
2019-05-10T10:28:01.173Z,157.50
2019-05-10T10:29:01.164Z,185.63
2019-05-10T10:30:01.163Z,185.63
2019-05-10T10:31:05.202Z,191.25
2019-05-10T10:32:01.159Z,202.50
2019-05-10T10:33:05.843Z,213.75
2019-05-10T10:34:03.104Z,230.63
2019-05-10T10:35:01.489Z,247.50
2019-05-10T10:36:04.808Z,281.25
2019-05-10T10:37:01.525Z,686.25
2019-05-10T10:38:02.994Z,348.75
2019-05-10T10:39:01.207Z,511.88
2019-05-10T10:40:05.478Z,1282.50
2019-05-10T10:41:01.147Z,1029.38
2019-05-10T10:42:02.490Z,438.75
2019-05-10T10:43:01.292Z,939.38
2019-05-10T10:44:01.143Z,568.13
2019-05-10T10:45:01.162Z,315.00
2019-05-10T10:46:01.298Z,286.88
2019-05-10T10:47:01.146Z,275.63
2019-05-10T10:48:02.499Z,281.25
2019-05-10T10:49:01.145Z,281.25
2019-05-10T10:50:02.906Z,292.50
2019-05-10T10:51:01.160Z,286.88
2019-05-10T10:52:05.615Z,258.75
2019-05-10T10:53:01.148Z,208.13
2019-05-10T10:54:01.150Z,208.13
2019-05-10T10:55:05.685Z,208.13
2019-05-10T10:56:03.759Z,241.88
2019-05-10T10:57:01.156Z,275.63
2019-05-10T10:58:01.151Z,303.75
2019-05-10T10:59:01.156Z,315.00
2019-05-10T11:00:01.162Z,455.63
2019-05-10T11:01:01.153Z,298.13
2019-05-10T11:02:27.926Z,579.38
2019-05-10T11:03:01.153Z,1681.88
2019-05-10T11:04:03.709Z,495.00
2019-05-10T11:05:01.180Z,298.13
2019-05-10T11:06:01.231Z,208.13
2019-05-10T11:07:09.845Z,236.25
2019-05-10T11:08:01.824Z,196.88
2019-05-10T11:09:01.744Z,168.75
2019-05-10T11:10:14.742Z,168.75
2019-05-10T11:11:01.193Z,202.50
2019-05-10T11:12:01.234Z,354.38
2019-05-10T11:13:02.884Z,191.25
2019-05-10T11:14:07.328Z,191.25
2019-05-10T11:15:01.250Z,213.75
2019-05-10T11:16:09.758Z,253.13
2019-05-10T11:17:01.247Z,461.25
2019-05-10T11:18:01.174Z,1603.13
2019-05-10T11:19:03.857Z,444.38
2019-05-10T11:20:01.178Z,213.75
2019-05-10T11:21:02.059Z,180.00
2019-05-10T11:22:04.431Z,202.50
2019-05-10T11:23:01.859Z,253.13
2019-05-10T11:24:01.540Z,680.63
2019-05-10T11:25:09.173Z,1473.75
2019-05-10T11:26:01.421Z,652.50
2019-05-10T11:27:01.219Z,1535.63
2019-05-10T11:28:01.875Z,455.63
2019-05-10T11:29:01.411Z,219.38
2019-05-10T11:30:01.249Z,163.13
2019-05-10T11:31:01.317Z,146.25
2019-05-10T11:33:29.716Z,174.38
2019-05-10T11:34:37.199Z,151.88
2019-05-10T11:36:45.772Z,135.00
2019-05-10T11:39:25.572Z,185.63
2019-05-10T11:40:52.765Z,230.63
2019-05-10T11:42:01.064Z,315.00
2019-05-10T11:43:48.226Z,1760.63
2019-05-10T11:44:52.801Z,2092.50
2019-05-10T11:46:42.979Z,2154.38
2019-05-10T11:47:42.743Z,708.75
2019-05-10T11:49:37.112Z,1665.00
2019-05-10T11:50:37.138Z,1485.00
2019-05-10T11:52:34.898Z,303.75
2019-05-10T11:53:31.653Z,202.50
2019-05-10T11:55:25.907Z,163.13
2019-05-10T11:56:27.809Z,180.00
2019-05-10T11:58:23.730Z,168.75
2019-05-10T11:59:21.822Z,185.63
2019-05-10T12:01:19.264Z,247.50
2019-05-10T12:02:33.928Z,264.38
2019-05-10T12:04:21.774Z,315.00
2019-05-10T12:05:12.278Z,371.25
2019-05-10T12:07:08.448Z,405.00
2019-05-10T12:08:03.630Z,320.63
2019-05-10T12:10:08.268Z,286.88
2019-05-10T12:11:10.230Z,292.50
2019-05-10T12:13:06.169Z,309.38
2019-05-10T12:13:57.228Z,331.88
2019-05-10T12:15:46.775Z,337.50
2019-05-10T12:16:46.783Z,298.13
2019-05-10T12:19:00.689Z,393.75
2019-05-10T12:19:47.792Z,416.25
2019-05-10T12:21:35.643Z,427.50
2019-05-10T12:22:38.277Z,427.50
2019-05-10T12:24:45.298Z,410.63
2019-05-10T12:25:46.306Z,382.50
2019-05-10T12:27:41.775Z,393.75
2019-05-10T12:28:31.528Z,399.38
2019-05-10T12:30:22.739Z,405.00
2019-05-10T12:31:23.302Z,393.75
2019-05-10T12:33:25.299Z,331.88
2019-05-10T12:34:17.114Z,331.88
2019-05-10T12:36:22.107Z,371.25
2019-05-10T12:37:11.499Z,326.25
2019-05-10T12:39:06.333Z,331.88
2019-05-10T12:40:11.955Z,337.50
2019-05-10T12:42:00.724Z,360.00
2019-05-10T12:43:00.787Z,331.88
2019-05-10T12:44:55.863Z,303.75
2019-05-10T12:45:55.056Z,309.38
2019-05-10T12:47:51.726Z,326.25
2019-05-10T12:48:51.642Z,331.88
2019-05-10T12:50:44.444Z,331.88
2019-05-10T12:51:43.869Z,315.00
2019-05-10T12:53:44.408Z,320.63
2019-05-10T12:54:38.188Z,309.38
2019-05-10T12:56:35.027Z,309.38
2019-05-10T12:57:32.583Z,264.38
2019-05-10T12:59:29.646Z,185.63
2019-05-10T13:00:26.926Z,174.38
2019-05-10T13:02:21.379Z,202.50
2019-05-10T13:03:25.494Z,202.50
2019-05-10T13:05:16.094Z,196.88
2019-05-10T13:06:19.467Z,196.88
2019-05-10T13:08:10.204Z,258.75
2019-05-10T13:09:10.195Z,264.38
2019-05-10T13:11:04.620Z,208.13
2019-05-10T13:12:06.338Z,168.75
2019-05-10T13:14:01.056Z,174.38
2019-05-10T13:14:59.054Z,253.13
2019-05-10T13:16:53.451Z,129.38
2019-05-10T13:17:53.417Z,112.50
2019-05-10T13:19:52.728Z,95.63
2019-05-10T13:20:47.971Z,101.25
2019-05-10T13:22:42.340Z,151.88
2019-05-10T13:23:42.338Z,208.13
2019-05-10T13:25:41.437Z,258.75
2019-05-10T13:26:41.354Z,213.75